WetterOnline ( https://www.wetteronline.ch )

Wetter aktuell Boizenburg

Aktuelles Wetter: Boizenburg (46m)

6-stündlich | Neueste Meldungen
Ortszeit Temperatur Wetter
So, 25.08. 8:00 17.4° C wolkenlos
So, 25.08. 2:00 17.8° C wolkenlos
Sa, 24.08. 20:00 25.2° C wolkenlos
Sa, 24.08. 14:00 28.4° C fast wolkenlos
Sa, 24.08. 8:00 16.5° C leicht bewölkt
Sa, 24.08. 2:00 14.6° C wolkig
Fr, 23.08. 20:00 23.2° C wolkig
Fr, 23.08. 14:00 26.5° C leicht bewölkt
Ortszeit Temperatur Wetter
So, 25.08. 8:00 17.4° C wolkenlos
So, 25.08. 7:50 17.4° C wolkenlos
So, 25.08. 7:40 18.1° C wolkenlos
So, 25.08. 7:30 18.1° C leicht bewölkt
So, 25.08. 7:20 18.1° C leicht bewölkt
So, 25.08. 7:10 17.9° C bewölkt
So, 25.08. 7:00 16.6° C bewölkt
So, 25.08. 6:30 16.1° C bewölkt
So, 25.08. 6:00 16.3° C bewölkt
So, 25.08. 5:30 15.9° C bewölkt
So, 25.08. 5:00 15.4° C leicht bewölkt
Ortszeit Relative Feuchte Sichtweite
So, 25.08. 8:00 75% 35 km
So, 25.08. 2:00 72% 40 km
Sa, 24.08. 20:00 42% 55 km
Sa, 24.08. 14:00 34% 40 km
Sa, 24.08. 8:00 69% 45 km
Sa, 24.08. 2:00 76% 40 km
Fr, 23.08. 20:00 50% 40 km
Fr, 23.08. 14:00 38% 35 km
Ortszeit Relative Feuchte Sichtweite
So, 25.08. 8:00 75% 35 km
So, 25.08. 7:50 75% -
So, 25.08. 7:40 72% -
So, 25.08. 7:30 74% 45 km
So, 25.08. 7:20 74% -
So, 25.08. 7:10 74% -
So, 25.08. 7:00 81% 35 km
So, 25.08. 6:30 82% 35 km
So, 25.08. 6:00 81% 35 km
So, 25.08. 5:30 83% 35 km
So, 25.08. 5:00 83% 35 km
Ortszeit Niederschlagsmenge Niederschlagsart
So, 25.08. 8:00 0.0 l/m2 in 12 Std. -
So, 25.08. 2:00 0.0 l/m2 in 6 Std. -
Sa, 24.08. 20:00 0.0 l/m2 in 12 Std. -
Sa, 24.08. 14:00 0.0 l/m2 in 6 Std. -
Sa, 24.08. 8:00 0.0 l/m2 in 12 Std. -
Sa, 24.08. 2:00 0.0 l/m2 in 6 Std. -
Fr, 23.08. 20:00 0.0 l/m2 in 12 Std. -
Fr, 23.08. 14:00 0.0 l/m2 in 6 Std. -
Ortszeit Niederschlagsmenge Niederschlagsart
So, 25.08. 8:00 0.0 l/m2 in 1 Std. -
So, 25.08. 7:50 keine Meldung -
So, 25.08. 7:40 keine Meldung -
So, 25.08. 7:30 0.0 l/m2 in 1 Std. -
So, 25.08. 7:20 keine Meldung -
So, 25.08. 7:10 keine Meldung -
So, 25.08. 7:00 0.0 l/m2 in 1 Std. -
So, 25.08. 6:30 0.0 l/m2 in 1 Std. -
So, 25.08. 6:00 0.0 l/m2 in 1 Std. -
So, 25.08. 5:30 0.0 l/m2 in 1 Std. -
So, 25.08. 5:00 0.0 l/m2 in 1 Std. -
Ortszeit Stärke Spitze Richtung
km/h Bft. km/h Grad Sektor
So, 25.08. 8:00 6 1 11 70° O
So, 25.08. 2:00 7 2 22 90° O
Sa, 24.08. 20:00 7 2 32 60° NO
Sa, 24.08. 14:00 17 3 30 80° O
Sa, 24.08. 8:00 4 1 14 50° NO
Sa, 24.08. 2:00 7 2 18 50° NO
Fr, 23.08. 20:00 7 2 25 340° N
Fr, 23.08. 14:00 7 2 22 220° SW
Ortszeit Stärke Spitze Richtung
km/h Bft. km/h Grad Sektor
So, 25.08. 8:00 6 1 7 70° O
So, 25.08. 7:50 6 1 - 70° O
So, 25.08. 7:40 6 1 - 70° O
So, 25.08. 7:30 4 1 7 70° O
So, 25.08. 7:20 4 1 - 70° O
So, 25.08. 7:10 4 1 - 70° O
So, 25.08. 7:00 4 1 7 80° O
So, 25.08. 6:30 4 1 7 90° O
So, 25.08. 6:00 4 1 7 70° O
So, 25.08. 5:30 4 1 7 80° O
So, 25.08. 5:00 4 1 11 100° O
Ortszeit Untergrenze Bedeckung Gattung
total tief tief mittel hoch
So, 25.08. 8:00 - 0/8 0/8 - - -
So, 25.08. 2:00 - 0/8 0/8 - - -
Sa, 24.08. 20:00 - 0/8 0/8 - - -
Sa, 24.08. 14:00 9000 m 1/8 0/8 - - -
Sa, 24.08. 8:00 9000 m 7/8 0/8 - - -
Sa, 24.08. 2:00 10500 m 8/8 0/8 - - -
Fr, 23.08. 20:00 9000 m 7/8 0/8 - - -
Fr, 23.08. 14:00 10500 m 8/8 0/8 - - -
Ortszeit Bedeckungsgrad in Achtel und Wolkenuntergrenze
So, 25.08. 8:00 keine Wolken
So, 25.08. 7:50 keine Wolken
So, 25.08. 7:40 keine Wolken
So, 25.08. 7:30 4(1800m)
So, 25.08. 7:20 4(1800m)
So, 25.08. 7:10 7(1800m)
So, 25.08. 7:00 7(1800m)
So, 25.08. 6:30 7(1800m)
So, 25.08. 6:00 7(1800m)
So, 25.08. 5:30 7(1800m)
So, 25.08. 5:00 4(1800m)
Ortszeit Luftdruck NN (hPa) Tendenz (hPa in 3 Std.)
So, 25.08. 8:00 1022 - 0,2
So, 25.08. 2:00 1022 0,0
Sa, 24.08. 20:00 1021 - 0,8
Sa, 24.08. 14:00 1024 - 1,4
Sa, 24.08. 8:00 1025 0,0
Sa, 24.08. 2:00 1026 0,0
Fr, 23.08. 20:00 1025 - 0,4
Fr, 23.08. 14:00 1026 - 0,7
Ortszeit Luftdruck NN (hPa) Tendenz (hPa in 3 Std.)
So, 25.08. 8:00 1022 - 0,2
So, 25.08. 7:50 1022 keine Meldung
So, 25.08. 7:40 1021 keine Meldung
So, 25.08. 7:30 1022 - 0,1
So, 25.08. 7:20 1022 keine Meldung
So, 25.08. 7:10 1022 keine Meldung
So, 25.08. 7:00 1022 - 0,2
So, 25.08. 6:30 1022 - 0,4
So, 25.08. 6:00 1021 - 0,7
So, 25.08. 5:30 1022 - 0,6
So, 25.08. 5:00 1022 - 0,5
Ortszeit Schneehöhe (cm)
So, 25.08. 8:00 -
So, 25.08. 2:00 -
Sa, 24.08. 20:00 -
Sa, 24.08. 14:00 -
Sa, 24.08. 8:00 -
Sa, 24.08. 2:00 -
Fr, 23.08. 20:00 -
Fr, 23.08. 14:00 -
Ortszeit Schneehöhe (cm)
So, 25.08. 8:00 -
So, 25.08. 7:50 -
So, 25.08. 7:40 -
So, 25.08. 7:30 -
So, 25.08. 7:20 -
So, 25.08. 7:10 -
So, 25.08. 7:00 -
So, 25.08. 6:30 -
So, 25.08. 6:00 -
So, 25.08. 5:30 -
So, 25.08. 5:00 -
Link zu dieser Seite / Seite empfehlen

Das Wetter in ...